<?xml version="1.0" encoding="UTF-8" standalone="no" ?>
<gpx xmlns="http://www.topografix.com/GPX/1/1" xmlns:xsi="http://www.w3.org/2001/XMLSchema-instance" xsi:schemaLocation="http://www.topografix.com/GPX/1/1 http://www.topografix.com/GPX/1/1/gpx.xsd" version="1.1" creator="VisuGPX - https://www.visugpx.com">
  <metadata>
    <name>Pravouta Roc d'Arguille Bec Charvet</name>
    <desc><![CDATA[Pravouta Roc d'Arguille Bec Charvet
Petite errement sous le Bec Charvet --> petite redescente]]></desc>
  </metadata>
  <trk>
    <name><![CDATA[Tracé actuel: 24 FEV 2018 09:34]]></name>
    <trkseg>
      <trkpt lat="45.29666" lon="5.84513">
        <ele>1214.28</ele>
        <time>2018-02-24T08:39:28Z</time>
      </trkpt>
      <trkpt lat="45.29669" lon="5.84501">
        <ele>1214.76</ele>
        <time>2018-02-24T08:42:52Z</time>
      </trkpt>
      <trkpt lat="45.29692" lon="5.84484">
        <ele>1217.65</ele>
        <time>2018-02-24T08:43:20Z</time>
      </trkpt>
      <trkpt lat="45.29715" lon="5.84468">
        <ele>1221.01</ele>
        <time>2018-02-24T08:43:49Z</time>
      </trkpt>
      <trkpt lat="45.29735" lon="5.84452">
        <ele>1223.42</ele>
        <time>2018-02-24T08:44:12Z</time>
      </trkpt>
      <trkpt lat="45.29759" lon="5.8443">
        <ele>1226.3</ele>
        <time>2018-02-24T08:44:41Z</time>
      </trkpt>
      <trkpt lat="45.29773" lon="5.84407">
        <ele>1229.18</ele>
        <time>2018-02-24T08:45:06Z</time>
      </trkpt>
      <trkpt lat="45.29784" lon="5.84398">
        <ele>1228.7</ele>
        <time>2018-02-24T08:47:47Z</time>
      </trkpt>
      <trkpt lat="45.29807" lon="5.84378">
        <ele>1234.47</ele>
        <time>2018-02-24T08:49:13Z</time>
      </trkpt>
      <trkpt lat="45.29832" lon="5.84362">
        <ele>1237.35</ele>
        <time>2018-02-24T08:49:43Z</time>
      </trkpt>
      <trkpt lat="45.2986" lon="5.84338">
        <ele>1241.2</ele>
        <time>2018-02-24T08:50:20Z</time>
      </trkpt>
      <trkpt lat="45.29885" lon="5.84312">
        <ele>1244.08</ele>
        <time>2018-02-24T08:50:54Z</time>
      </trkpt>
      <trkpt lat="45.29905" lon="5.8429">
        <ele>1246.97</ele>
        <time>2018-02-24T08:51:25Z</time>
      </trkpt>
      <trkpt lat="45.29931" lon="5.84261">
        <ele>1250.33</ele>
        <time>2018-02-24T08:52:09Z</time>
      </trkpt>
      <trkpt lat="45.29951" lon="5.84245">
        <ele>1252.74</ele>
        <time>2018-02-24T08:52:41Z</time>
      </trkpt>
      <trkpt lat="45.29976" lon="5.84224">
        <ele>1255.62</ele>
        <time>2018-02-24T08:53:23Z</time>
      </trkpt>
      <trkpt lat="45.30004" lon="5.84205">
        <ele>1258.98</ele>
        <time>2018-02-24T08:54:04Z</time>
      </trkpt>
      <trkpt lat="45.30029" lon="5.84187">
        <ele>1262.83</ele>
        <time>2018-02-24T08:54:43Z</time>
      </trkpt>
      <trkpt lat="45.30026" lon="5.84153">
        <ele>1265.23</ele>
        <time>2018-02-24T08:55:08Z</time>
      </trkpt>
      <trkpt lat="45.30007" lon="5.84137">
        <ele>1268.12</ele>
        <time>2018-02-24T08:55:34Z</time>
      </trkpt>
      <trkpt lat="45.29988" lon="5.84115">
        <ele>1270.04</ele>
        <time>2018-02-24T08:56:02Z</time>
      </trkpt>
      <trkpt lat="45.29961" lon="5.84081">
        <ele>1273.88</ele>
        <time>2018-02-24T08:56:53Z</time>
      </trkpt>
      <trkpt lat="45.2998" lon="5.84067">
        <ele>1279.17</ele>
        <time>2018-02-24T08:57:39Z</time>
      </trkpt>
      <trkpt lat="45.30003" lon="5.84078">
        <ele>1282.06</ele>
        <time>2018-02-24T08:58:10Z</time>
      </trkpt>
      <trkpt lat="45.30033" lon="5.84076">
        <ele>1286.38</ele>
        <time>2018-02-24T08:58:46Z</time>
      </trkpt>
      <trkpt lat="45.30061" lon="5.84072">
        <ele>1290.23</ele>
        <time>2018-02-24T08:59:24Z</time>
      </trkpt>
      <trkpt lat="45.30094" lon="5.84068">
        <ele>1294.07</ele>
        <time>2018-02-24T09:00:07Z</time>
      </trkpt>
      <trkpt lat="45.30122" lon="5.84065">
        <ele>1297.44</ele>
        <time>2018-02-24T09:00:44Z</time>
      </trkpt>
      <trkpt lat="45.30151" lon="5.84055">
        <ele>1301.28</ele>
        <time>2018-02-24T09:01:23Z</time>
      </trkpt>
      <trkpt lat="45.30181" lon="5.84047">
        <ele>1305.13</ele>
        <time>2018-02-24T09:02:03Z</time>
      </trkpt>
      <trkpt lat="45.30208" lon="5.84065">
        <ele>1309.45</ele>
        <time>2018-02-24T09:02:45Z</time>
      </trkpt>
      <trkpt lat="45.30219" lon="5.84094">
        <ele>1312.34</ele>
        <time>2018-02-24T09:03:16Z</time>
      </trkpt>
      <trkpt lat="45.30223" lon="5.8407">
        <ele>1316.18</ele>
        <time>2018-02-24T09:04:13Z</time>
      </trkpt>
      <trkpt lat="45.30216" lon="5.84039">
        <ele>1318.1</ele>
        <time>2018-02-24T09:04:38Z</time>
      </trkpt>
      <trkpt lat="45.30214" lon="5.84014">
        <ele>1317.62</ele>
        <time>2018-02-24T09:06:44Z</time>
      </trkpt>
      <trkpt lat="45.30199" lon="5.83988">
        <ele>1321.95</ele>
        <time>2018-02-24T09:08:00Z</time>
      </trkpt>
      <trkpt lat="45.30179" lon="5.83974">
        <ele>1325.31</ele>
        <time>2018-02-24T09:08:28Z</time>
      </trkpt>
      <trkpt lat="45.30149" lon="5.83967">
        <ele>1328.2</ele>
        <time>2018-02-24T09:09:01Z</time>
      </trkpt>
      <trkpt lat="45.30153" lon="5.83947">
        <ele>1331.56</ele>
        <time>2018-02-24T09:09:51Z</time>
      </trkpt>
      <trkpt lat="45.30185" lon="5.83939">
        <ele>1334.45</ele>
        <time>2018-02-24T09:10:27Z</time>
      </trkpt>
      <trkpt lat="45.30219" lon="5.83935">
        <ele>1338.29</ele>
        <time>2018-02-24T09:11:07Z</time>
      </trkpt>
      <trkpt lat="45.3024" lon="5.83948">
        <ele>1340.7</ele>
        <time>2018-02-24T09:11:32Z</time>
      </trkpt>
      <trkpt lat="45.30268" lon="5.83974">
        <ele>1344.06</ele>
        <time>2018-02-24T09:12:09Z</time>
      </trkpt>
      <trkpt lat="45.30289" lon="5.83991">
        <ele>1346.94</ele>
        <time>2018-02-24T09:12:42Z</time>
      </trkpt>
      <trkpt lat="45.30308" lon="5.84011">
        <ele>1349.83</ele>
        <time>2018-02-24T09:13:14Z</time>
      </trkpt>
      <trkpt lat="45.30331" lon="5.84033">
        <ele>1353.19</ele>
        <time>2018-02-24T09:13:49Z</time>
      </trkpt>
      <trkpt lat="45.30345" lon="5.84017">
        <ele>1358.48</ele>
        <time>2018-02-24T09:14:26Z</time>
      </trkpt>
      <trkpt lat="45.30331" lon="5.83978">
        <ele>1362.33</ele>
        <time>2018-02-24T09:15:08Z</time>
      </trkpt>
      <trkpt lat="45.3032" lon="5.83948">
        <ele>1364.25</ele>
        <time>2018-02-24T09:15:38Z</time>
      </trkpt>
      <trkpt lat="45.30326" lon="5.83915">
        <ele>1366.65</ele>
        <time>2018-02-24T09:16:08Z</time>
      </trkpt>
      <trkpt lat="45.30348" lon="5.83928">
        <ele>1369.05</ele>
        <time>2018-02-24T09:16:41Z</time>
      </trkpt>
      <trkpt lat="45.30364" lon="5.83952">
        <ele>1371.94</ele>
        <time>2018-02-24T09:17:13Z</time>
      </trkpt>
      <trkpt lat="45.30385" lon="5.83984">
        <ele>1376.26</ele>
        <time>2018-02-24T09:17:53Z</time>
      </trkpt>
      <trkpt lat="45.30404" lon="5.84">
        <ele>1379.63</ele>
        <time>2018-02-24T09:18:22Z</time>
      </trkpt>
      <trkpt lat="45.30434" lon="5.84012">
        <ele>1383.47</ele>
        <time>2018-02-24T09:19:02Z</time>
      </trkpt>
      <trkpt lat="45.30457" lon="5.84021">
        <ele>1386.84</ele>
        <time>2018-02-24T09:19:33Z</time>
      </trkpt>
      <trkpt lat="45.30485" lon="5.84037">
        <ele>1389.72</ele>
        <time>2018-02-24T09:20:09Z</time>
      </trkpt>
      <trkpt lat="45.30506" lon="5.8406">
        <ele>1391.65</ele>
        <time>2018-02-24T09:20:40Z</time>
      </trkpt>
      <trkpt lat="45.30529" lon="5.84055">
        <ele>1394.53</ele>
        <time>2018-02-24T09:21:11Z</time>
      </trkpt>
      <trkpt lat="45.30531" lon="5.84014">
        <ele>1397.41</ele>
        <time>2018-02-24T09:21:52Z</time>
      </trkpt>
      <trkpt lat="45.3053" lon="5.83982">
        <ele>1398.86</ele>
        <time>2018-02-24T09:22:22Z</time>
      </trkpt>
      <trkpt lat="45.30549" lon="5.84005">
        <ele>1402.22</ele>
        <time>2018-02-24T09:23:16Z</time>
      </trkpt>
      <trkpt lat="45.30567" lon="5.84035">
        <ele>1406.07</ele>
        <time>2018-02-24T09:24:14Z</time>
      </trkpt>
      <trkpt lat="45.30591" lon="5.84044">
        <ele>1410.87</ele>
        <time>2018-02-24T09:24:48Z</time>
      </trkpt>
      <trkpt lat="45.30612" lon="5.8407">
        <ele>1414.24</ele>
        <time>2018-02-24T09:25:34Z</time>
      </trkpt>
      <trkpt lat="45.30633" lon="5.84085">
        <ele>1420</ele>
        <time>2018-02-24T09:26:28Z</time>
      </trkpt>
      <trkpt lat="45.30661" lon="5.84089">
        <ele>1425.77</ele>
        <time>2018-02-24T09:27:19Z</time>
      </trkpt>
      <trkpt lat="45.30685" lon="5.84101">
        <ele>1433.94</ele>
        <time>2018-02-24T09:28:22Z</time>
      </trkpt>
      <trkpt lat="45.30708" lon="5.84102">
        <ele>1442.11</ele>
        <time>2018-02-24T09:29:20Z</time>
      </trkpt>
      <trkpt lat="45.30729" lon="5.84097">
        <ele>1449.81</ele>
        <time>2018-02-24T09:30:19Z</time>
      </trkpt>
      <trkpt lat="45.30755" lon="5.84109">
        <ele>1457.98</ele>
        <time>2018-02-24T09:31:20Z</time>
      </trkpt>
      <trkpt lat="45.30779" lon="5.84115">
        <ele>1465.19</ele>
        <time>2018-02-24T09:32:16Z</time>
      </trkpt>
      <trkpt lat="45.30801" lon="5.84112">
        <ele>1472.4</ele>
        <time>2018-02-24T09:33:06Z</time>
      </trkpt>
      <trkpt lat="45.30806" lon="5.8408">
        <ele>1481.53</ele>
        <time>2018-02-24T09:34:12Z</time>
      </trkpt>
      <trkpt lat="45.30815" lon="5.84068">
        <ele>1483.45</ele>
        <time>2018-02-24T09:36:03Z</time>
      </trkpt>
      <trkpt lat="45.30835" lon="5.84075">
        <ele>1489.7</ele>
        <time>2018-02-24T09:37:17Z</time>
      </trkpt>
      <trkpt lat="45.3084" lon="5.84043">
        <ele>1497.87</ele>
        <time>2018-02-24T09:38:13Z</time>
      </trkpt>
      <trkpt lat="45.30843" lon="5.84007">
        <ele>1504.12</ele>
        <time>2018-02-24T09:39:02Z</time>
      </trkpt>
      <trkpt lat="45.30854" lon="5.83978">
        <ele>1512.29</ele>
        <time>2018-02-24T09:39:53Z</time>
      </trkpt>
      <trkpt lat="45.30881" lon="5.83973">
        <ele>1519.98</ele>
        <time>2018-02-24T09:40:49Z</time>
      </trkpt>
      <trkpt lat="45.30899" lon="5.83962">
        <ele>1529.59</ele>
        <time>2018-02-24T09:42:01Z</time>
      </trkpt>
      <trkpt lat="45.309" lon="5.83924">
        <ele>1537.29</ele>
        <time>2018-02-24T09:42:57Z</time>
      </trkpt>
      <trkpt lat="45.30887" lon="5.83895">
        <ele>1546.42</ele>
        <time>2018-02-24T09:44:05Z</time>
      </trkpt>
      <trkpt lat="45.30877" lon="5.83864">
        <ele>1553.63</ele>
        <time>2018-02-24T09:44:59Z</time>
      </trkpt>
      <trkpt lat="45.30871" lon="5.83833">
        <ele>1558.43</ele>
        <time>2018-02-24T09:45:43Z</time>
      </trkpt>
      <trkpt lat="45.30888" lon="5.83834">
        <ele>1564.68</ele>
        <time>2018-02-24T09:46:35Z</time>
      </trkpt>
      <trkpt lat="45.30911" lon="5.83839">
        <ele>1570.45</ele>
        <time>2018-02-24T09:47:32Z</time>
      </trkpt>
      <trkpt lat="45.30898" lon="5.8381">
        <ele>1577.18</ele>
        <time>2018-02-24T09:48:32Z</time>
      </trkpt>
      <trkpt lat="45.30901" lon="5.83793">
        <ele>1584.39</ele>
        <time>2018-02-24T09:50:35Z</time>
      </trkpt>
      <trkpt lat="45.30901" lon="5.83789">
        <ele>1589.2</ele>
        <time>2018-02-24T09:52:21Z</time>
      </trkpt>
      <trkpt lat="45.30895" lon="5.83765">
        <ele>1596.41</ele>
        <time>2018-02-24T09:53:17Z</time>
      </trkpt>
      <trkpt lat="45.30919" lon="5.83762">
        <ele>1605.06</ele>
        <time>2018-02-24T09:54:05Z</time>
      </trkpt>
      <trkpt lat="45.30906" lon="5.83732">
        <ele>1616.59</ele>
        <time>2018-02-24T09:55:16Z</time>
      </trkpt>
      <trkpt lat="45.30895" lon="5.83703">
        <ele>1625.25</ele>
        <time>2018-02-24T09:56:09Z</time>
      </trkpt>
      <trkpt lat="45.309" lon="5.8368">
        <ele>1634.86</ele>
        <time>2018-02-24T09:57:12Z</time>
      </trkpt>
      <trkpt lat="45.30923" lon="5.8368">
        <ele>1641.11</ele>
        <time>2018-02-24T09:58:02Z</time>
      </trkpt>
      <trkpt lat="45.30946" lon="5.83681">
        <ele>1647.36</ele>
        <time>2018-02-24T09:58:54Z</time>
      </trkpt>
      <trkpt lat="45.30952" lon="5.83669">
        <ele>1656.01</ele>
        <time>2018-02-24T10:00:11Z</time>
      </trkpt>
      <trkpt lat="45.30942" lon="5.83636">
        <ele>1665.14</ele>
        <time>2018-02-24T10:01:23Z</time>
      </trkpt>
      <trkpt lat="45.30927" lon="5.83606">
        <ele>1673.31</ele>
        <time>2018-02-24T10:02:27Z</time>
      </trkpt>
      <trkpt lat="45.30937" lon="5.8359">
        <ele>1681.48</ele>
        <time>2018-02-24T10:03:33Z</time>
      </trkpt>
      <trkpt lat="45.30943" lon="5.83579">
        <ele>1691.1</ele>
        <time>2018-02-24T10:05:00Z</time>
      </trkpt>
      <trkpt lat="45.30964" lon="5.83573">
        <ele>1702.15</ele>
        <time>2018-02-24T10:06:18Z</time>
      </trkpt>
      <trkpt lat="45.30989" lon="5.83571">
        <ele>1712.25</ele>
        <time>2018-02-24T10:07:35Z</time>
      </trkpt>
      <trkpt lat="45.31014" lon="5.83572">
        <ele>1719.46</ele>
        <time>2018-02-24T10:08:45Z</time>
      </trkpt>
      <trkpt lat="45.31037" lon="5.83568">
        <ele>1729.07</ele>
        <time>2018-02-24T10:09:55Z</time>
      </trkpt>
      <trkpt lat="45.31056" lon="5.83567">
        <ele>1733.88</ele>
        <time>2018-02-24T10:11:31Z</time>
      </trkpt>
      <trkpt lat="45.31084" lon="5.83561">
        <ele>1740.12</ele>
        <time>2018-02-24T10:12:26Z</time>
      </trkpt>
      <trkpt lat="45.3111" lon="5.83553">
        <ele>1746.85</ele>
        <time>2018-02-24T10:13:17Z</time>
      </trkpt>
      <trkpt lat="45.31132" lon="5.83548">
        <ele>1753.58</ele>
        <time>2018-02-24T10:14:07Z</time>
      </trkpt>
      <trkpt lat="45.3115" lon="5.83552">
        <ele>1753.1</ele>
        <time>2018-02-24T10:16:10Z</time>
      </trkpt>
      <trkpt lat="45.31181" lon="5.83558">
        <ele>1747.81</ele>
        <time>2018-02-24T10:16:51Z</time>
      </trkpt>
      <trkpt lat="45.31207" lon="5.83568">
        <ele>1741.57</ele>
        <time>2018-02-24T10:17:07Z</time>
      </trkpt>
      <trkpt lat="45.3123" lon="5.8358">
        <ele>1737.24</ele>
        <time>2018-02-24T10:17:26Z</time>
      </trkpt>
      <trkpt lat="45.31255" lon="5.83583">
        <ele>1731.47</ele>
        <time>2018-02-24T10:17:46Z</time>
      </trkpt>
      <trkpt lat="45.31294" lon="5.83587">
        <ele>1723.78</ele>
        <time>2018-02-24T10:18:15Z</time>
      </trkpt>
      <trkpt lat="45.31319" lon="5.83596">
        <ele>1719.46</ele>
        <time>2018-02-24T10:18:32Z</time>
      </trkpt>
      <trkpt lat="45.31347" lon="5.83604">
        <ele>1712.73</ele>
        <time>2018-02-24T10:18:53Z</time>
      </trkpt>
      <trkpt lat="45.31371" lon="5.8362">
        <ele>1707.44</ele>
        <time>2018-02-24T10:19:15Z</time>
      </trkpt>
      <trkpt lat="45.31368" lon="5.8358">
        <ele>1699.75</ele>
        <time>2018-02-24T10:19:30Z</time>
      </trkpt>
      <trkpt lat="45.31391" lon="5.83587">
        <ele>1693.98</ele>
        <time>2018-02-24T10:19:48Z</time>
      </trkpt>
      <trkpt lat="45.31418" lon="5.83611">
        <ele>1687.25</ele>
        <time>2018-02-24T10:20:04Z</time>
      </trkpt>
      <trkpt lat="45.31435" lon="5.83639">
        <ele>1688.69</ele>
        <time>2018-02-24T10:20:46Z</time>
      </trkpt>
      <trkpt lat="45.31443" lon="5.83667">
        <ele>1693.98</ele>
        <time>2018-02-24T10:21:29Z</time>
      </trkpt>
      <trkpt lat="45.3147" lon="5.83663">
        <ele>1700.71</ele>
        <time>2018-02-24T10:22:24Z</time>
      </trkpt>
      <trkpt lat="45.31472" lon="5.83628">
        <ele>1700.23</ele>
        <time>2018-02-24T10:23:13Z</time>
      </trkpt>
      <trkpt lat="45.31496" lon="5.83614">
        <ele>1704.07</ele>
        <time>2018-02-24T10:24:05Z</time>
      </trkpt>
      <trkpt lat="45.31501" lon="5.8365">
        <ele>1712.73</ele>
        <time>2018-02-24T10:25:07Z</time>
      </trkpt>
      <trkpt lat="45.31515" lon="5.83639">
        <ele>1719.46</ele>
        <time>2018-02-24T10:26:11Z</time>
      </trkpt>
      <trkpt lat="45.31543" lon="5.8363">
        <ele>1723.78</ele>
        <time>2018-02-24T10:26:58Z</time>
      </trkpt>
      <trkpt lat="45.31568" lon="5.83636">
        <ele>1729.07</ele>
        <time>2018-02-24T10:27:50Z</time>
      </trkpt>
      <trkpt lat="45.31591" lon="5.83651">
        <ele>1735.32</ele>
        <time>2018-02-24T10:28:45Z</time>
      </trkpt>
      <trkpt lat="45.31588" lon="5.83678">
        <ele>1740.6</ele>
        <time>2018-02-24T10:29:40Z</time>
      </trkpt>
      <trkpt lat="45.31589" lon="5.8371">
        <ele>1746.85</ele>
        <time>2018-02-24T10:30:38Z</time>
      </trkpt>
      <trkpt lat="45.31611" lon="5.83719">
        <ele>1750.7</ele>
        <time>2018-02-24T10:31:20Z</time>
      </trkpt>
      <trkpt lat="45.31639" lon="5.83729">
        <ele>1756.47</ele>
        <time>2018-02-24T10:32:12Z</time>
      </trkpt>
      <trkpt lat="45.31664" lon="5.83744">
        <ele>1758.87</ele>
        <time>2018-02-24T10:32:51Z</time>
      </trkpt>
      <trkpt lat="45.3169" lon="5.83754">
        <ele>1760.31</ele>
        <time>2018-02-24T10:33:23Z</time>
      </trkpt>
      <trkpt lat="45.31717" lon="5.83764">
        <ele>1761.27</ele>
        <time>2018-02-24T10:34:02Z</time>
      </trkpt>
      <trkpt lat="45.31743" lon="5.8377">
        <ele>1759.83</ele>
        <time>2018-02-24T10:34:27Z</time>
      </trkpt>
      <trkpt lat="45.31754" lon="5.83789">
        <ele>1760.79</ele>
        <time>2018-02-24T10:35:12Z</time>
      </trkpt>
      <trkpt lat="45.31755" lon="5.83789">
        <ele>1759.35</ele>
        <time>2018-02-24T10:47:21Z</time>
      </trkpt>
      <trkpt lat="45.3176" lon="5.83765">
        <ele>1756.47</ele>
        <time>2018-02-24T10:53:04Z</time>
      </trkpt>
      <trkpt lat="45.31769" lon="5.83731">
        <ele>1747.33</ele>
        <time>2018-02-24T10:53:11Z</time>
      </trkpt>
      <trkpt lat="45.31739" lon="5.83699">
        <ele>1743.49</ele>
        <time>2018-02-24T10:53:41Z</time>
      </trkpt>
      <trkpt lat="45.31713" lon="5.83679">
        <ele>1740.6</ele>
        <time>2018-02-24T10:53:49Z</time>
      </trkpt>
      <trkpt lat="45.31691" lon="5.8366">
        <ele>1738.68</ele>
        <time>2018-02-24T10:53:56Z</time>
      </trkpt>
      <trkpt lat="45.31663" lon="5.83625">
        <ele>1731.95</ele>
        <time>2018-02-24T10:54:03Z</time>
      </trkpt>
      <trkpt lat="45.31636" lon="5.83594">
        <ele>1727.63</ele>
        <time>2018-02-24T10:54:09Z</time>
      </trkpt>
      <trkpt lat="45.31613" lon="5.83579">
        <ele>1724.74</ele>
        <time>2018-02-24T10:54:20Z</time>
      </trkpt>
      <trkpt lat="45.31583" lon="5.83578">
        <ele>1721.86</ele>
        <time>2018-02-24T10:54:55Z</time>
      </trkpt>
      <trkpt lat="45.3155" lon="5.83603">
        <ele>1718.97</ele>
        <time>2018-02-24T10:55:07Z</time>
      </trkpt>
      <trkpt lat="45.31552" lon="5.83584">
        <ele>1715.61</ele>
        <time>2018-02-24T10:55:32Z</time>
      </trkpt>
      <trkpt lat="45.31536" lon="5.83564">
        <ele>1706</ele>
        <time>2018-02-24T10:55:44Z</time>
      </trkpt>
      <trkpt lat="45.31513" lon="5.83581">
        <ele>1702.63</ele>
        <time>2018-02-24T10:56:18Z</time>
      </trkpt>
      <trkpt lat="45.31471" lon="5.83623">
        <ele>1696.86</ele>
        <time>2018-02-24T10:56:30Z</time>
      </trkpt>
      <trkpt lat="45.3146" lon="5.8365">
        <ele>1697.83</ele>
        <time>2018-02-24T10:57:28Z</time>
      </trkpt>
      <trkpt lat="45.31426" lon="5.83642">
        <ele>1690.62</ele>
        <time>2018-02-24T10:57:35Z</time>
      </trkpt>
      <trkpt lat="45.31403" lon="5.83577">
        <ele>1687.25</ele>
        <time>2018-02-24T10:57:47Z</time>
      </trkpt>
      <trkpt lat="45.31393" lon="5.83523">
        <ele>1685.33</ele>
        <time>2018-02-24T10:58:01Z</time>
      </trkpt>
      <trkpt lat="45.31359" lon="5.83501">
        <ele>1682.44</ele>
        <time>2018-02-24T10:58:17Z</time>
      </trkpt>
      <trkpt lat="45.31333" lon="5.8349">
        <ele>1679.56</ele>
        <time>2018-02-24T10:58:23Z</time>
      </trkpt>
      <trkpt lat="45.31306" lon="5.83474">
        <ele>1676.2</ele>
        <time>2018-02-24T10:58:31Z</time>
      </trkpt>
      <trkpt lat="45.31273" lon="5.83458">
        <ele>1671.39</ele>
        <time>2018-02-24T10:58:39Z</time>
      </trkpt>
      <trkpt lat="45.31256" lon="5.83442">
        <ele>1669.47</ele>
        <time>2018-02-24T10:59:37Z</time>
      </trkpt>
      <trkpt lat="45.31255" lon="5.83415">
        <ele>1660.81</ele>
        <time>2018-02-24T10:59:51Z</time>
      </trkpt>
      <trkpt lat="45.31257" lon="5.83382">
        <ele>1651.68</ele>
        <time>2018-02-24T10:59:57Z</time>
      </trkpt>
      <trkpt lat="45.31239" lon="5.8335">
        <ele>1646.88</ele>
        <time>2018-02-24T11:00:01Z</time>
      </trkpt>
      <trkpt lat="45.31208" lon="5.8332">
        <ele>1643.99</ele>
        <time>2018-02-24T11:00:07Z</time>
      </trkpt>
      <trkpt lat="45.31185" lon="5.83296">
        <ele>1641.11</ele>
        <time>2018-02-24T11:00:12Z</time>
      </trkpt>
      <trkpt lat="45.31156" lon="5.83271">
        <ele>1637.74</ele>
        <time>2018-02-24T11:00:19Z</time>
      </trkpt>
      <trkpt lat="45.31144" lon="5.83235">
        <ele>1627.17</ele>
        <time>2018-02-24T11:00:29Z</time>
      </trkpt>
      <trkpt lat="45.31147" lon="5.83204">
        <ele>1617.07</ele>
        <time>2018-02-24T11:00:37Z</time>
      </trkpt>
      <trkpt lat="45.31108" lon="5.83185">
        <ele>1614.19</ele>
        <time>2018-02-24T11:00:45Z</time>
      </trkpt>
      <trkpt lat="45.31085" lon="5.83169">
        <ele>1610.83</ele>
        <time>2018-02-24T11:00:50Z</time>
      </trkpt>
      <trkpt lat="45.31074" lon="5.83138">
        <ele>1599.77</ele>
        <time>2018-02-24T11:00:59Z</time>
      </trkpt>
      <trkpt lat="45.31075" lon="5.83115">
        <ele>1591.12</ele>
        <time>2018-02-24T11:01:41Z</time>
      </trkpt>
      <trkpt lat="45.31052" lon="5.8308">
        <ele>1582.47</ele>
        <time>2018-02-24T11:01:52Z</time>
      </trkpt>
      <trkpt lat="45.31014" lon="5.83052">
        <ele>1570.45</ele>
        <time>2018-02-24T11:02:11Z</time>
      </trkpt>
      <trkpt lat="45.31024" lon="5.83017">
        <ele>1557.47</ele>
        <time>2018-02-24T11:02:28Z</time>
      </trkpt>
      <trkpt lat="45.31033" lon="5.82995">
        <ele>1554.59</ele>
        <time>2018-02-24T11:04:32Z</time>
      </trkpt>
      <trkpt lat="45.30997" lon="5.82999">
        <ele>1548.34</ele>
        <time>2018-02-24T11:04:42Z</time>
      </trkpt>
      <trkpt lat="45.30974" lon="5.82994">
        <ele>1543.53</ele>
        <time>2018-02-24T11:04:47Z</time>
      </trkpt>
      <trkpt lat="45.30958" lon="5.82973">
        <ele>1535.36</ele>
        <time>2018-02-24T11:04:57Z</time>
      </trkpt>
      <trkpt lat="45.3095" lon="5.8295">
        <ele>1526.71</ele>
        <time>2018-02-24T11:05:07Z</time>
      </trkpt>
      <trkpt lat="45.30938" lon="5.82937">
        <ele>1521.9</ele>
        <time>2018-02-24T11:05:43Z</time>
      </trkpt>
      <trkpt lat="45.30915" lon="5.82931">
        <ele>1516.14</ele>
        <time>2018-02-24T11:05:56Z</time>
      </trkpt>
      <trkpt lat="45.30884" lon="5.82928">
        <ele>1509.41</ele>
        <time>2018-02-24T11:06:08Z</time>
      </trkpt>
      <trkpt lat="45.30861" lon="5.82929">
        <ele>1507</ele>
        <time>2018-02-24T11:06:13Z</time>
      </trkpt>
      <trkpt lat="45.3083" lon="5.82955">
        <ele>1502.68</ele>
        <time>2018-02-24T11:06:24Z</time>
      </trkpt>
      <trkpt lat="45.30808" lon="5.82992">
        <ele>1497.39</ele>
        <time>2018-02-24T11:06:42Z</time>
      </trkpt>
      <trkpt lat="45.30802" lon="5.83028">
        <ele>1494.51</ele>
        <time>2018-02-24T11:06:56Z</time>
      </trkpt>
      <trkpt lat="45.30791" lon="5.83048">
        <ele>1492.58</ele>
        <time>2018-02-24T11:07:35Z</time>
      </trkpt>
      <trkpt lat="45.30782" lon="5.8303">
        <ele>1485.37</ele>
        <time>2018-02-24T11:07:48Z</time>
      </trkpt>
      <trkpt lat="45.30771" lon="5.83007">
        <ele>1478.65</ele>
        <time>2018-02-24T11:08:03Z</time>
      </trkpt>
      <trkpt lat="45.30746" lon="5.83026">
        <ele>1472.88</ele>
        <time>2018-02-24T11:08:19Z</time>
      </trkpt>
      <trkpt lat="45.3074" lon="5.82995">
        <ele>1465.19</ele>
        <time>2018-02-24T11:08:59Z</time>
      </trkpt>
      <trkpt lat="45.3072" lon="5.82999">
        <ele>1454.61</ele>
        <time>2018-02-24T11:09:18Z</time>
      </trkpt>
      <trkpt lat="45.30704" lon="5.83018">
        <ele>1446.92</ele>
        <time>2018-02-24T11:09:44Z</time>
      </trkpt>
      <trkpt lat="45.30692" lon="5.82996">
        <ele>1435.87</ele>
        <time>2018-02-24T11:10:13Z</time>
      </trkpt>
      <trkpt lat="45.30677" lon="5.83016">
        <ele>1428.66</ele>
        <time>2018-02-24T11:10:32Z</time>
      </trkpt>
      <trkpt lat="45.30663" lon="5.83013">
        <ele>1420</ele>
        <time>2018-02-24T11:11:22Z</time>
      </trkpt>
      <trkpt lat="45.30637" lon="5.83013">
        <ele>1404.62</ele>
        <time>2018-02-24T11:11:46Z</time>
      </trkpt>
      <trkpt lat="45.30615" lon="5.83053">
        <ele>1395.97</ele>
        <time>2018-02-24T11:12:18Z</time>
      </trkpt>
      <trkpt lat="45.30595" lon="5.83091">
        <ele>1390.68</ele>
        <time>2018-02-24T11:12:30Z</time>
      </trkpt>
      <trkpt lat="45.30579" lon="5.83079">
        <ele>1382.03</ele>
        <time>2018-02-24T11:12:56Z</time>
      </trkpt>
      <trkpt lat="45.3056" lon="5.83066">
        <ele>1372.42</ele>
        <time>2018-02-24T11:13:09Z</time>
      </trkpt>
      <trkpt lat="45.30537" lon="5.8307">
        <ele>1364.73</ele>
        <time>2018-02-24T11:14:00Z</time>
      </trkpt>
      <trkpt lat="45.30517" lon="5.83071">
        <ele>1360.4</ele>
        <time>2018-02-24T11:14:06Z</time>
      </trkpt>
      <trkpt lat="45.30492" lon="5.83061">
        <ele>1352.71</ele>
        <time>2018-02-24T11:14:11Z</time>
      </trkpt>
      <trkpt lat="45.30469" lon="5.83041">
        <ele>1345.5</ele>
        <time>2018-02-24T11:14:17Z</time>
      </trkpt>
      <trkpt lat="45.30445" lon="5.83036">
        <ele>1339.73</ele>
        <time>2018-02-24T11:14:22Z</time>
      </trkpt>
      <trkpt lat="45.30422" lon="5.83029">
        <ele>1338.29</ele>
        <time>2018-02-24T11:14:31Z</time>
      </trkpt>
      <trkpt lat="45.30427" lon="5.83042">
        <ele>1337.81</ele>
        <time>2018-02-24T11:21:13Z</time>
      </trkpt>
      <trkpt lat="45.30424" lon="5.83045">
        <ele>1340.22</ele>
        <time>2018-02-24T11:26:13Z</time>
      </trkpt>
      <trkpt lat="45.30401" lon="5.83069">
        <ele>1346.46</ele>
        <time>2018-02-24T11:27:24Z</time>
      </trkpt>
      <trkpt lat="45.30381" lon="5.83083">
        <ele>1350.79</ele>
        <time>2018-02-24T11:28:06Z</time>
      </trkpt>
      <trkpt lat="45.3036" lon="5.83109">
        <ele>1356.56</ele>
        <time>2018-02-24T11:29:05Z</time>
      </trkpt>
      <trkpt lat="45.30337" lon="5.83136">
        <ele>1363.29</ele>
        <time>2018-02-24T11:30:07Z</time>
      </trkpt>
      <trkpt lat="45.30316" lon="5.83161">
        <ele>1368.57</ele>
        <time>2018-02-24T11:31:04Z</time>
      </trkpt>
      <trkpt lat="45.30298" lon="5.83183">
        <ele>1373.38</ele>
        <time>2018-02-24T11:31:59Z</time>
      </trkpt>
      <trkpt lat="45.30276" lon="5.83207">
        <ele>1379.63</ele>
        <time>2018-02-24T11:32:58Z</time>
      </trkpt>
      <trkpt lat="45.30253" lon="5.83231">
        <ele>1385.88</ele>
        <time>2018-02-24T11:33:57Z</time>
      </trkpt>
      <trkpt lat="45.30233" lon="5.83253">
        <ele>1390.2</ele>
        <time>2018-02-24T11:34:45Z</time>
      </trkpt>
      <trkpt lat="45.30211" lon="5.83275">
        <ele>1392.13</ele>
        <time>2018-02-24T11:35:27Z</time>
      </trkpt>
      <trkpt lat="45.30196" lon="5.83305">
        <ele>1394.05</ele>
        <time>2018-02-24T11:35:58Z</time>
      </trkpt>
      <trkpt lat="45.30183" lon="5.83341">
        <ele>1395.97</ele>
        <time>2018-02-24T11:36:30Z</time>
      </trkpt>
      <trkpt lat="45.30174" lon="5.83381">
        <ele>1397.89</ele>
        <time>2018-02-24T11:37:01Z</time>
      </trkpt>
      <trkpt lat="45.30156" lon="5.83405">
        <ele>1399.82</ele>
        <time>2018-02-24T11:37:31Z</time>
      </trkpt>
      <trkpt lat="45.3013" lon="5.83414">
        <ele>1405.58</ele>
        <time>2018-02-24T11:38:24Z</time>
      </trkpt>
      <trkpt lat="45.30108" lon="5.83419">
        <ele>1412.79</ele>
        <time>2018-02-24T11:39:27Z</time>
      </trkpt>
      <trkpt lat="45.30082" lon="5.83425">
        <ele>1422.89</ele>
        <time>2018-02-24T11:40:46Z</time>
      </trkpt>
      <trkpt lat="45.30061" lon="5.83433">
        <ele>1432.02</ele>
        <time>2018-02-24T11:42:02Z</time>
      </trkpt>
      <trkpt lat="45.3005" lon="5.83407">
        <ele>1439.71</ele>
        <time>2018-02-24T11:43:05Z</time>
      </trkpt>
      <trkpt lat="45.3004" lon="5.83382">
        <ele>1444.52</ele>
        <time>2018-02-24T11:44:08Z</time>
      </trkpt>
      <trkpt lat="45.30032" lon="5.83351">
        <ele>1450.29</ele>
        <time>2018-02-24T11:45:12Z</time>
      </trkpt>
      <trkpt lat="45.30027" lon="5.83319">
        <ele>1456.05</ele>
        <time>2018-02-24T11:46:14Z</time>
      </trkpt>
      <trkpt lat="45.30005" lon="5.83317">
        <ele>1461.34</ele>
        <time>2018-02-24T11:47:04Z</time>
      </trkpt>
      <trkpt lat="45.29978" lon="5.83317">
        <ele>1464.71</ele>
        <time>2018-02-24T11:47:48Z</time>
      </trkpt>
      <trkpt lat="45.29945" lon="5.83319">
        <ele>1466.15</ele>
        <time>2018-02-24T11:48:30Z</time>
      </trkpt>
      <trkpt lat="45.29921" lon="5.83315">
        <ele>1471.92</ele>
        <time>2018-02-24T11:49:26Z</time>
      </trkpt>
      <trkpt lat="45.29901" lon="5.83337">
        <ele>1478.16</ele>
        <time>2018-02-24T11:50:22Z</time>
      </trkpt>
      <trkpt lat="45.29882" lon="5.83353">
        <ele>1484.89</ele>
        <time>2018-02-24T11:51:28Z</time>
      </trkpt>
      <trkpt lat="45.29867" lon="5.83326">
        <ele>1490.18</ele>
        <time>2018-02-24T11:52:29Z</time>
      </trkpt>
      <trkpt lat="45.29862" lon="5.83294">
        <ele>1494.99</ele>
        <time>2018-02-24T11:53:17Z</time>
      </trkpt>
      <trkpt lat="45.29865" lon="5.83258">
        <ele>1499.79</ele>
        <time>2018-02-24T11:54:34Z</time>
      </trkpt>
      <trkpt lat="45.29859" lon="5.83226">
        <ele>1504.6</ele>
        <time>2018-02-24T11:55:18Z</time>
      </trkpt>
      <trkpt lat="45.29874" lon="5.83202">
        <ele>1509.89</ele>
        <time>2018-02-24T11:56:10Z</time>
      </trkpt>
      <trkpt lat="45.29867" lon="5.83168">
        <ele>1516.62</ele>
        <time>2018-02-24T11:57:08Z</time>
      </trkpt>
      <trkpt lat="45.29879" lon="5.83137">
        <ele>1522.87</ele>
        <time>2018-02-24T11:58:04Z</time>
      </trkpt>
      <trkpt lat="45.29888" lon="5.83107">
        <ele>1527.19</ele>
        <time>2018-02-24T11:58:56Z</time>
      </trkpt>
      <trkpt lat="45.29872" lon="5.83086">
        <ele>1532.96</ele>
        <time>2018-02-24T11:59:52Z</time>
      </trkpt>
      <trkpt lat="45.29865" lon="5.83061">
        <ele>1542.57</ele>
        <time>2018-02-24T12:01:29Z</time>
      </trkpt>
      <trkpt lat="45.29871" lon="5.83047">
        <ele>1549.78</ele>
        <time>2018-02-24T12:02:46Z</time>
      </trkpt>
      <trkpt lat="45.29852" lon="5.83024">
        <ele>1559.4</ele>
        <time>2018-02-24T12:03:56Z</time>
      </trkpt>
      <trkpt lat="45.29832" lon="5.83009">
        <ele>1567.57</ele>
        <time>2018-02-24T12:05:11Z</time>
      </trkpt>
      <trkpt lat="45.29806" lon="5.83003">
        <ele>1576.22</ele>
        <time>2018-02-24T12:06:30Z</time>
      </trkpt>
      <trkpt lat="45.29783" lon="5.83005">
        <ele>1583.43</ele>
        <time>2018-02-24T12:07:37Z</time>
      </trkpt>
      <trkpt lat="45.29761" lon="5.83014">
        <ele>1589.68</ele>
        <time>2018-02-24T12:08:47Z</time>
      </trkpt>
      <trkpt lat="45.29764" lon="5.82991">
        <ele>1594.96</ele>
        <time>2018-02-24T12:10:50Z</time>
      </trkpt>
      <trkpt lat="45.29776" lon="5.82957">
        <ele>1601.69</ele>
        <time>2018-02-24T12:12:08Z</time>
      </trkpt>
      <trkpt lat="45.29789" lon="5.82931">
        <ele>1609.86</ele>
        <time>2018-02-24T12:13:20Z</time>
      </trkpt>
      <trkpt lat="45.29804" lon="5.82905">
        <ele>1617.07</ele>
        <time>2018-02-24T12:14:52Z</time>
      </trkpt>
      <trkpt lat="45.29828" lon="5.82903">
        <ele>1616.11</ele>
        <time>2018-02-24T12:15:51Z</time>
      </trkpt>
      <trkpt lat="45.29841" lon="5.82921">
        <ele>1609.86</ele>
        <time>2018-02-24T12:17:37Z</time>
      </trkpt>
      <trkpt lat="45.2986" lon="5.82951">
        <ele>1598.81</ele>
        <time>2018-02-24T12:19:05Z</time>
      </trkpt>
      <trkpt lat="45.29879" lon="5.82968">
        <ele>1595.93</ele>
        <time>2018-02-24T12:20:47Z</time>
      </trkpt>
      <trkpt lat="45.29901" lon="5.82957">
        <ele>1600.25</ele>
        <time>2018-02-24T12:22:35Z</time>
      </trkpt>
      <trkpt lat="45.2991" lon="5.82934">
        <ele>1607.94</ele>
        <time>2018-02-24T12:24:45Z</time>
      </trkpt>
      <trkpt lat="45.29892" lon="5.82936">
        <ele>1615.15</ele>
        <time>2018-02-24T12:26:36Z</time>
      </trkpt>
      <trkpt lat="45.29881" lon="5.82921">
        <ele>1623.32</ele>
        <time>2018-02-24T12:28:01Z</time>
      </trkpt>
      <trkpt lat="45.29873" lon="5.829">
        <ele>1631.49</ele>
        <time>2018-02-24T12:29:30Z</time>
      </trkpt>
      <trkpt lat="45.29864" lon="5.82883">
        <ele>1636.78</ele>
        <time>2018-02-24T12:30:43Z</time>
      </trkpt>
      <trkpt lat="45.29861" lon="5.82867">
        <ele>1639.67</ele>
        <time>2018-02-24T12:33:03Z</time>
      </trkpt>
      <trkpt lat="45.29852" lon="5.82844">
        <ele>1640.15</ele>
        <time>2018-02-24T12:36:16Z</time>
      </trkpt>
      <trkpt lat="45.29837" lon="5.8283">
        <ele>1645.43</ele>
        <time>2018-02-24T12:38:47Z</time>
      </trkpt>
      <trkpt lat="45.29829" lon="5.82819">
        <ele>1646.88</ele>
        <time>2018-02-24T12:42:15Z</time>
      </trkpt>
      <trkpt lat="45.29831" lon="5.82816">
        <ele>1647.84</ele>
        <time>2018-02-24T12:47:12Z</time>
      </trkpt>
      <trkpt lat="45.29833" lon="5.82823">
        <ele>1649.28</ele>
        <time>2018-02-24T12:50:54Z</time>
      </trkpt>
      <trkpt lat="45.29829" lon="5.82845">
        <ele>1657.93</ele>
        <time>2018-02-24T12:53:23Z</time>
      </trkpt>
      <trkpt lat="45.29813" lon="5.8284">
        <ele>1667.06</ele>
        <time>2018-02-24T12:55:05Z</time>
      </trkpt>
      <trkpt lat="45.298" lon="5.82834">
        <ele>1674.27</ele>
        <time>2018-02-24T12:56:34Z</time>
      </trkpt>
      <trkpt lat="45.29792" lon="5.82827">
        <ele>1681.48</ele>
        <time>2018-02-24T12:58:22Z</time>
      </trkpt>
      <trkpt lat="45.29783" lon="5.82826">
        <ele>1690.62</ele>
        <time>2018-02-24T13:00:03Z</time>
      </trkpt>
      <trkpt lat="45.29768" lon="5.82824">
        <ele>1697.34</ele>
        <time>2018-02-24T13:01:23Z</time>
      </trkpt>
      <trkpt lat="45.29749" lon="5.8281">
        <ele>1706.48</ele>
        <time>2018-02-24T13:02:47Z</time>
      </trkpt>
      <trkpt lat="45.29733" lon="5.82804">
        <ele>1716.57</ele>
        <time>2018-02-24T13:05:36Z</time>
      </trkpt>
      <trkpt lat="45.29714" lon="5.82788">
        <ele>1723.78</ele>
        <time>2018-02-24T13:07:01Z</time>
      </trkpt>
      <trkpt lat="45.29689" lon="5.82805">
        <ele>1731.95</ele>
        <time>2018-02-24T13:08:21Z</time>
      </trkpt>
      <trkpt lat="45.29668" lon="5.82827">
        <ele>1738.2</ele>
        <time>2018-02-24T13:09:21Z</time>
      </trkpt>
      <trkpt lat="45.29676" lon="5.82831">
        <ele>1735.32</ele>
        <time>2018-02-24T13:14:42Z</time>
      </trkpt>
      <trkpt lat="45.29678" lon="5.82832">
        <ele>1733.39</ele>
        <time>2018-02-24T13:34:05Z</time>
      </trkpt>
      <trkpt lat="45.29689" lon="5.82816">
        <ele>1733.39</ele>
        <time>2018-02-24T13:37:39Z</time>
      </trkpt>
      <trkpt lat="45.29706" lon="5.8279">
        <ele>1726.18</ele>
        <time>2018-02-24T13:37:47Z</time>
      </trkpt>
      <trkpt lat="45.29721" lon="5.8279">
        <ele>1720.42</ele>
        <time>2018-02-24T13:38:16Z</time>
      </trkpt>
      <trkpt lat="45.29742" lon="5.82813">
        <ele>1711.76</ele>
        <time>2018-02-24T13:38:51Z</time>
      </trkpt>
      <trkpt lat="45.29761" lon="5.82809">
        <ele>1698.79</ele>
        <time>2018-02-24T13:39:23Z</time>
      </trkpt>
      <trkpt lat="45.29781" lon="5.82814">
        <ele>1689.17</ele>
        <time>2018-02-24T13:39:54Z</time>
      </trkpt>
      <trkpt lat="45.29795" lon="5.82808">
        <ele>1679.56</ele>
        <time>2018-02-24T13:40:59Z</time>
      </trkpt>
      <trkpt lat="45.29805" lon="5.82836">
        <ele>1670.43</ele>
        <time>2018-02-24T13:41:35Z</time>
      </trkpt>
      <trkpt lat="45.29828" lon="5.82845">
        <ele>1658.41</ele>
        <time>2018-02-24T13:41:55Z</time>
      </trkpt>
      <trkpt lat="45.29831" lon="5.82822">
        <ele>1651.68</ele>
        <time>2018-02-24T13:42:53Z</time>
      </trkpt>
      <trkpt lat="45.2985" lon="5.8284">
        <ele>1642.07</ele>
        <time>2018-02-24T13:43:15Z</time>
      </trkpt>
      <trkpt lat="45.29862" lon="5.82888">
        <ele>1637.74</ele>
        <time>2018-02-24T13:43:49Z</time>
      </trkpt>
      <trkpt lat="45.29877" lon="5.82914">
        <ele>1628.61</ele>
        <time>2018-02-24T13:44:17Z</time>
      </trkpt>
      <trkpt lat="45.29887" lon="5.8294">
        <ele>1618.04</ele>
        <time>2018-02-24T13:45:08Z</time>
      </trkpt>
      <trkpt lat="45.29908" lon="5.82934">
        <ele>1608.9</ele>
        <time>2018-02-24T13:46:07Z</time>
      </trkpt>
      <trkpt lat="45.29886" lon="5.82965">
        <ele>1597.85</ele>
        <time>2018-02-24T13:47:04Z</time>
      </trkpt>
      <trkpt lat="45.29849" lon="5.82961">
        <ele>1590.16</ele>
        <time>2018-02-24T13:47:33Z</time>
      </trkpt>
      <trkpt lat="45.29821" lon="5.82965">
        <ele>1586.31</ele>
        <time>2018-02-24T13:47:56Z</time>
      </trkpt>
      <trkpt lat="45.29822" lon="5.82981">
        <ele>1579.58</ele>
        <time>2018-02-24T13:48:05Z</time>
      </trkpt>
      <trkpt lat="45.29801" lon="5.83008">
        <ele>1572.37</ele>
        <time>2018-02-24T13:48:13Z</time>
      </trkpt>
      <trkpt lat="45.29798" lon="5.83042">
        <ele>1560.84</ele>
        <time>2018-02-24T13:48:24Z</time>
      </trkpt>
      <trkpt lat="45.29807" lon="5.83066">
        <ele>1548.82</ele>
        <time>2018-02-24T13:49:20Z</time>
      </trkpt>
      <trkpt lat="45.29813" lon="5.83102">
        <ele>1534.88</ele>
        <time>2018-02-24T13:49:52Z</time>
      </trkpt>
      <trkpt lat="45.29806" lon="5.83142">
        <ele>1524.31</ele>
        <time>2018-02-24T13:50:21Z</time>
      </trkpt>
      <trkpt lat="45.29817" lon="5.8317">
        <ele>1514.21</ele>
        <time>2018-02-24T13:51:05Z</time>
      </trkpt>
      <trkpt lat="45.29833" lon="5.83221">
        <ele>1508.45</ele>
        <time>2018-02-24T13:51:36Z</time>
      </trkpt>
      <trkpt lat="45.29837" lon="5.83254">
        <ele>1505.08</ele>
        <time>2018-02-24T13:51:41Z</time>
      </trkpt>
      <trkpt lat="45.29837" lon="5.83308">
        <ele>1497.87</ele>
        <time>2018-02-24T13:51:49Z</time>
      </trkpt>
      <trkpt lat="45.29853" lon="5.83331">
        <ele>1496.43</ele>
        <time>2018-02-24T13:51:54Z</time>
      </trkpt>
      <trkpt lat="45.2988" lon="5.8335">
        <ele>1486.82</ele>
        <time>2018-02-24T13:52:18Z</time>
      </trkpt>
      <trkpt lat="45.299" lon="5.83361">
        <ele>1480.09</ele>
        <time>2018-02-24T13:53:06Z</time>
      </trkpt>
      <trkpt lat="45.29941" lon="5.83342">
        <ele>1469.03</ele>
        <time>2018-02-24T13:53:18Z</time>
      </trkpt>
      <trkpt lat="45.29963" lon="5.83332">
        <ele>1466.63</ele>
        <time>2018-02-24T13:53:21Z</time>
      </trkpt>
      <trkpt lat="45.29985" lon="5.83325">
        <ele>1467.11</ele>
        <time>2018-02-24T13:53:29Z</time>
      </trkpt>
      <trkpt lat="45.3001" lon="5.83335">
        <ele>1464.71</ele>
        <time>2018-02-24T13:53:38Z</time>
      </trkpt>
      <trkpt lat="45.30015" lon="5.83381">
        <ele>1457.5</ele>
        <time>2018-02-24T13:54:11Z</time>
      </trkpt>
      <trkpt lat="45.30028" lon="5.83362">
        <ele>1450.77</ele>
        <time>2018-02-24T13:54:24Z</time>
      </trkpt>
      <trkpt lat="45.30045" lon="5.83355">
        <ele>1443.56</ele>
        <time>2018-02-24T13:54:40Z</time>
      </trkpt>
      <trkpt lat="45.30071" lon="5.83378">
        <ele>1436.83</ele>
        <time>2018-02-24T13:54:48Z</time>
      </trkpt>
      <trkpt lat="45.30085" lon="5.83374">
        <ele>1432.5</ele>
        <time>2018-02-24T13:55:14Z</time>
      </trkpt>
      <trkpt lat="45.30095" lon="5.83399">
        <ele>1424.81</ele>
        <time>2018-02-24T13:55:23Z</time>
      </trkpt>
      <trkpt lat="45.301" lon="5.83432">
        <ele>1420.49</ele>
        <time>2018-02-24T13:55:27Z</time>
      </trkpt>
      <trkpt lat="45.30129" lon="5.83459">
        <ele>1416.64</ele>
        <time>2018-02-24T13:55:34Z</time>
      </trkpt>
      <trkpt lat="45.30148" lon="5.83483">
        <ele>1413.76</ele>
        <time>2018-02-24T13:55:38Z</time>
      </trkpt>
      <trkpt lat="45.30171" lon="5.83493">
        <ele>1409.43</ele>
        <time>2018-02-24T13:55:43Z</time>
      </trkpt>
      <trkpt lat="45.30179" lon="5.83523">
        <ele>1409.91</ele>
        <time>2018-02-24T13:56:51Z</time>
      </trkpt>
      <trkpt lat="45.30202" lon="5.83545">
        <ele>1414.24</ele>
        <time>2018-02-24T13:57:53Z</time>
      </trkpt>
      <trkpt lat="45.30222" lon="5.83564">
        <ele>1417.12</ele>
        <time>2018-02-24T13:58:38Z</time>
      </trkpt>
      <trkpt lat="45.30242" lon="5.83591">
        <ele>1420.97</ele>
        <time>2018-02-24T13:59:31Z</time>
      </trkpt>
      <trkpt lat="45.30265" lon="5.83606">
        <ele>1424.81</ele>
        <time>2018-02-24T14:00:23Z</time>
      </trkpt>
      <trkpt lat="45.3028" lon="5.83626">
        <ele>1428.66</ele>
        <time>2018-02-24T14:01:14Z</time>
      </trkpt>
      <trkpt lat="45.30262" lon="5.83658">
        <ele>1431.06</ele>
        <time>2018-02-24T14:02:00Z</time>
      </trkpt>
      <trkpt lat="45.30246" lon="5.83687">
        <ele>1432.02</ele>
        <time>2018-02-24T14:02:41Z</time>
      </trkpt>
      <trkpt lat="45.30251" lon="5.83698">
        <ele>1432.5</ele>
        <time>2018-02-24T14:06:04Z</time>
      </trkpt>
      <trkpt lat="45.30273" lon="5.83717">
        <ele>1430.58</ele>
        <time>2018-02-24T14:06:33Z</time>
      </trkpt>
      <trkpt lat="45.30295" lon="5.83738">
        <ele>1427.7</ele>
        <time>2018-02-24T14:06:51Z</time>
      </trkpt>
      <trkpt lat="45.30267" lon="5.83759">
        <ele>1412.31</ele>
        <time>2018-02-24T14:07:23Z</time>
      </trkpt>
      <trkpt lat="45.30284" lon="5.83802">
        <ele>1404.62</ele>
        <time>2018-02-24T14:07:49Z</time>
      </trkpt>
      <trkpt lat="45.30286" lon="5.83829">
        <ele>1392.61</ele>
        <time>2018-02-24T14:08:09Z</time>
      </trkpt>
      <trkpt lat="45.30296" lon="5.83857">
        <ele>1381.07</ele>
        <time>2018-02-24T14:08:35Z</time>
      </trkpt>
      <trkpt lat="45.30307" lon="5.83883">
        <ele>1371.46</ele>
        <time>2018-02-24T14:09:17Z</time>
      </trkpt>
      <trkpt lat="45.30306" lon="5.83913">
        <ele>1364.25</ele>
        <time>2018-02-24T14:09:34Z</time>
      </trkpt>
      <trkpt lat="45.30314" lon="5.83939">
        <ele>1362.81</ele>
        <time>2018-02-24T14:10:25Z</time>
      </trkpt>
      <trkpt lat="45.3033" lon="5.83981">
        <ele>1359.92</ele>
        <time>2018-02-24T14:10:34Z</time>
      </trkpt>
      <trkpt lat="45.30345" lon="5.84016">
        <ele>1358</ele>
        <time>2018-02-24T14:10:41Z</time>
      </trkpt>
      <trkpt lat="45.30326" lon="5.84024">
        <ele>1353.19</ele>
        <time>2018-02-24T14:11:31Z</time>
      </trkpt>
      <trkpt lat="45.30307" lon="5.84006">
        <ele>1351.27</ele>
        <time>2018-02-24T14:11:35Z</time>
      </trkpt>
      <trkpt lat="45.30284" lon="5.83984">
        <ele>1347.43</ele>
        <time>2018-02-24T14:11:40Z</time>
      </trkpt>
      <trkpt lat="45.30265" lon="5.83964">
        <ele>1344.06</ele>
        <time>2018-02-24T14:11:44Z</time>
      </trkpt>
      <trkpt lat="45.30247" lon="5.83945">
        <ele>1341.66</ele>
        <time>2018-02-24T14:11:48Z</time>
      </trkpt>
      <trkpt lat="45.30226" lon="5.83931">
        <ele>1339.73</ele>
        <time>2018-02-24T14:11:52Z</time>
      </trkpt>
      <trkpt lat="45.30203" lon="5.83924">
        <ele>1337.33</ele>
        <time>2018-02-24T14:11:57Z</time>
      </trkpt>
      <trkpt lat="45.30181" lon="5.8393">
        <ele>1334.45</ele>
        <time>2018-02-24T14:12:01Z</time>
      </trkpt>
      <trkpt lat="45.30157" lon="5.83935">
        <ele>1333.49</ele>
        <time>2018-02-24T14:12:05Z</time>
      </trkpt>
      <trkpt lat="45.30133" lon="5.83935">
        <ele>1330.12</ele>
        <time>2018-02-24T14:12:10Z</time>
      </trkpt>
      <trkpt lat="45.30133" lon="5.83964">
        <ele>1328.2</ele>
        <time>2018-02-24T14:12:31Z</time>
      </trkpt>
      <trkpt lat="45.30183" lon="5.83973">
        <ele>1323.87</ele>
        <time>2018-02-24T14:12:52Z</time>
      </trkpt>
      <trkpt lat="45.30204" lon="5.83995">
        <ele>1320.51</ele>
        <time>2018-02-24T14:12:57Z</time>
      </trkpt>
      <trkpt lat="45.30215" lon="5.84026">
        <ele>1318.59</ele>
        <time>2018-02-24T14:13:02Z</time>
      </trkpt>
      <trkpt lat="45.30225" lon="5.8406">
        <ele>1315.7</ele>
        <time>2018-02-24T14:13:07Z</time>
      </trkpt>
      <trkpt lat="45.30234" lon="5.84093">
        <ele>1313.78</ele>
        <time>2018-02-24T14:13:12Z</time>
      </trkpt>
      <trkpt lat="45.30215" lon="5.84085">
        <ele>1310.41</ele>
        <time>2018-02-24T14:13:18Z</time>
      </trkpt>
      <trkpt lat="45.30202" lon="5.84055">
        <ele>1307.53</ele>
        <time>2018-02-24T14:13:32Z</time>
      </trkpt>
      <trkpt lat="45.30176" lon="5.84047">
        <ele>1304.65</ele>
        <time>2018-02-24T14:13:37Z</time>
      </trkpt>
      <trkpt lat="45.30149" lon="5.84054">
        <ele>1300.8</ele>
        <time>2018-02-24T14:13:42Z</time>
      </trkpt>
      <trkpt lat="45.30127" lon="5.8406">
        <ele>1297.92</ele>
        <time>2018-02-24T14:13:46Z</time>
      </trkpt>
      <trkpt lat="45.30102" lon="5.84066">
        <ele>1295.51</ele>
        <time>2018-02-24T14:13:50Z</time>
      </trkpt>
      <trkpt lat="45.30079" lon="5.84065">
        <ele>1293.11</ele>
        <time>2018-02-24T14:13:54Z</time>
      </trkpt>
      <trkpt lat="45.30054" lon="5.84068">
        <ele>1290.71</ele>
        <time>2018-02-24T14:13:58Z</time>
      </trkpt>
      <trkpt lat="45.30029" lon="5.84075">
        <ele>1287.82</ele>
        <time>2018-02-24T14:14:02Z</time>
      </trkpt>
      <trkpt lat="45.29985" lon="5.84069">
        <ele>1282.54</ele>
        <time>2018-02-24T14:14:08Z</time>
      </trkpt>
      <trkpt lat="45.29964" lon="5.84071">
        <ele>1276.77</ele>
        <time>2018-02-24T14:14:14Z</time>
      </trkpt>
      <trkpt lat="45.29976" lon="5.84094">
        <ele>1272.44</ele>
        <time>2018-02-24T14:14:33Z</time>
      </trkpt>
      <trkpt lat="45.29992" lon="5.84113">
        <ele>1271.96</ele>
        <time>2018-02-24T14:15:14Z</time>
      </trkpt>
      <trkpt lat="45.30012" lon="5.84134">
        <ele>1270.04</ele>
        <time>2018-02-24T14:15:20Z</time>
      </trkpt>
      <trkpt lat="45.30027" lon="5.84161">
        <ele>1265.71</ele>
        <time>2018-02-24T14:15:27Z</time>
      </trkpt>
      <trkpt lat="45.30012" lon="5.84191">
        <ele>1263.31</ele>
        <time>2018-02-24T14:15:33Z</time>
      </trkpt>
      <trkpt lat="45.29988" lon="5.84204">
        <ele>1260.43</ele>
        <time>2018-02-24T14:15:39Z</time>
      </trkpt>
      <trkpt lat="45.29965" lon="5.84216">
        <ele>1257.06</ele>
        <time>2018-02-24T14:15:45Z</time>
      </trkpt>
      <trkpt lat="45.29942" lon="5.84232">
        <ele>1254.18</ele>
        <time>2018-02-24T14:15:51Z</time>
      </trkpt>
      <trkpt lat="45.29923" lon="5.84255">
        <ele>1251.29</ele>
        <time>2018-02-24T14:15:57Z</time>
      </trkpt>
      <trkpt lat="45.29904" lon="5.8428">
        <ele>1247.93</ele>
        <time>2018-02-24T14:16:03Z</time>
      </trkpt>
      <trkpt lat="45.29885" lon="5.84301">
        <ele>1245.53</ele>
        <time>2018-02-24T14:16:08Z</time>
      </trkpt>
      <trkpt lat="45.29867" lon="5.84319">
        <ele>1242.64</ele>
        <time>2018-02-24T14:16:13Z</time>
      </trkpt>
      <trkpt lat="45.29848" lon="5.84337">
        <ele>1240.24</ele>
        <time>2018-02-24T14:16:18Z</time>
      </trkpt>
      <trkpt lat="45.29824" lon="5.84355">
        <ele>1238.32</ele>
        <time>2018-02-24T14:16:24Z</time>
      </trkpt>
      <trkpt lat="45.29805" lon="5.84374">
        <ele>1234.95</ele>
        <time>2018-02-24T14:16:29Z</time>
      </trkpt>
      <trkpt lat="45.29786" lon="5.8439">
        <ele>1231.59</ele>
        <time>2018-02-24T14:16:35Z</time>
      </trkpt>
      <trkpt lat="45.29774" lon="5.84415">
        <ele>1230.14</ele>
        <time>2018-02-24T14:16:53Z</time>
      </trkpt>
      <trkpt lat="45.29755" lon="5.84417">
        <ele>1227.74</ele>
        <time>2018-02-24T14:18:51Z</time>
      </trkpt>
      <trkpt lat="45.29728" lon="5.84437">
        <ele>1225.34</ele>
        <time>2018-02-24T14:19:28Z</time>
      </trkpt>
      <trkpt lat="45.29706" lon="5.84456">
        <ele>1222.45</ele>
        <time>2018-02-24T14:19:58Z</time>
      </trkpt>
      <trkpt lat="45.29686" lon="5.8447">
        <ele>1220.05</ele>
        <time>2018-02-24T14:20:24Z</time>
      </trkpt>
      <trkpt lat="45.29663" lon="5.84495">
        <ele>1218.13</ele>
        <time>2018-02-24T14:20:56Z</time>
      </trkpt>
      <trkpt lat="45.29671" lon="5.84508">
        <ele>1216.69</ele>
        <time>2018-02-24T14:24:10Z</time>
      </trkpt>
      <trkpt lat="45.29661" lon="5.84507">
        <ele>1220.53</ele>
        <time>2018-02-24T14:27:57Z</time>
      </trkpt>
      <trkpt lat="45.29666" lon="5.84506">
        <ele>1221.49</ele>
        <time>2018-02-24T14:32:13Z</time>
      </trkpt>
      <trkpt lat="45.29665" lon="5.84501">
        <ele>1225.34</ele>
        <time>2018-02-24T14:36:50Z</time>
      </trkpt>
    </trkseg>
  </trk>
</gpx>